Matenka — SPBB — position and weather

sailwx.info

Track history (hours):
 
Tides and Currents Weather Stations Pressure Air Temp Water Temp Dewpoint Dewpoint Depression Visibility Wind Speed Wind Dir Waves Ship Positions

Matenka

Last reported at 2018-Jul-14 07:04 UTC. Time now 2018-Jul-21 21:06 UTC.
Position N 39°13' W 071°40'.

Length 13 m.

Type: Sailing vessel. MMSI: 261495000.

Date/timePositionNaut miles runAvg speedWind from/ knotsBaromVisibWave heightAir tempDewpointWater temp
2018-Jul-14 07:04N 39°13' W 071°40'56 2.9
2018-Jul-13 12:06N 39°57' W 072°24'1 4.3
2018-Jul-13 11:57N 39°57' W 072°25'5 4.2
2018-Jul-13 10:50N 40°01' W 072°29'3 4.2
2018-Jul-13 10:07N 40°03' W 072°32'1 4.0
2018-Jul-13 09:57N 40°03' W 072°33'2 3.9
2018-Jul-13 09:30N 40°04' W 072°34'2 3.9
2018-Jul-13 09:00N 40°06' W 072°36'2 4.0
2018-Jul-13 08:30N 40°07' W 072°38'2 4.4
2018-Jul-13 08:00N 40°09' W 072°40'3 4.4
2018-Jul-13 07:25N 40°10' W 072°42'2 4.4
2018-Jul-13 06:58N 40°12' W 072°44'3 4.4
2018-Jul-13 06:22N 40°14' W 072°46'2 4.5
2018-Jul-13 05:52N 40°16' W 072°48'2 4.6
2018-Jul-13 05:29N 40°17' W 072°49'60 4.3
2018-Jul-12 15:31N 40°38' W 074°03'0 5.9
2018-Jul-12 15:29N 40°38' W 074°03'2 5.0
2018-Jul-12 15:00N 40°41' W 074°03'1 0.1
2018-Jul-12 02:43N 40°41' W 074°03'0 0.0
2018-Jul-12 02:13N 40°41' W 074°03'0 0.0
2018-Jul-12 01:58N 40°41' W 074°03'0 0.0
2018-Jul-12 01:28N 40°41' W 074°03'  
2018-Jul-05 03:27N 40°43' W 074°01'2 4.5
2018-Jul-05 03:00N 40°41' W 074°03'0 0.1
2018-Jul-05 00:28N 40°41' W 074°03'1 1.9
2018-Jul-05 00:00N 40°42' W 074°02'  
Track history (hours):
 
Tides and Currents Weather Stations Pressure Air Temp Water Temp Dewpoint Dewpoint Depression Visibility Wind Speed Wind Dir Waves Ship Positions

Matenka

Last reported at 2018-Jul-14 07:04 UTC. Time now 2018-Jul-21 21:06 UTC.
Position N 39°13' W 071°40'.

Length 13 m.

Type: Sailing vessel. MMSI: 261495000.

Date/timePositionNaut miles runAvg speedWind from/ knotsBaromVisibWave heightAir tempDewpointWater temp
2018-Jul-14 07:04N 39°13' W 071°40'56 2.9
2018-Jul-13 12:06N 39°57' W 072°24'1 4.3
2018-Jul-13 11:57N 39°57' W 072°25'5 4.2
2018-Jul-13 10:50N 40°01' W 072°29'3 4.2
2018-Jul-13 10:07N 40°03' W 072°32'1 4.0
2018-Jul-13 09:57N 40°03' W 072°33'2 3.9
2018-Jul-13 09:30N 40°04' W 072°34'2 3.9
2018-Jul-13 09:00N 40°06' W 072°36'2 4.0
2018-Jul-13 08:30N 40°07' W 072°38'2 4.4
2018-Jul-13 08:00N 40°09' W 072°40'3 4.4
2018-Jul-13 07:25N 40°10' W 072°42'2 4.4
2018-Jul-13 06:58N 40°12' W 072°44'3 4.4
2018-Jul-13 06:22N 40°14' W 072°46'2 4.5
2018-Jul-13 05:52N 40°16' W 072°48'2 4.6
2018-Jul-13 05:29N 40°17' W 072°49'60 4.3
2018-Jul-12 15:31N 40°38' W 074°03'0 5.9
2018-Jul-12 15:29N 40°38' W 074°03'2 5.0
2018-Jul-12 15:00N 40°41' W 074°03'1 0.1
2018-Jul-12 02:43N 40°41' W 074°03'0 0.0
2018-Jul-12 02:13N 40°41' W 074°03'0 0.0
2018-Jul-12 01:58N 40°41' W 074°03'0 0.0
2018-Jul-12 01:28N 40°41' W 074°03'  
2018-Jul-05 03:27N 40°43' W 074°01'2 4.5
2018-Jul-05 03:00N 40°41' W 074°03'0 0.1
2018-Jul-05 00:28N 40°41' W 074°03'1 1.9
2018-Jul-05 00:00N 40°42' W 074°02'  

Dump ship's entire track history